• Join FlightAware (Why Join?)
  • Login
  • US Flag 
11:26PM EDT


 

Airport Tracker/Info


-or-


 

Live Flight TrackerFlight Track Log ✈ N182HP ✈ 17-Oct-2013 ✈ KSHD - KMTN

Flight Track Log - Related Links

Times and Time Zones

All times are in EDT time to prevent confusion due to time zone crossing. See the N182HP flight status page for this flight to view local times or setup timezone preferences in your user account.

Time Position Orientation Groundspeed Altitude Reporting Facility
EDT Latitude Longitude Course Direction KTS MPH feet Rate Location/Type
10:30AM 38.3778 -78.7461 32° Northeast 110 127 6,100  Level Washington Center
10:31AM 38.4014 -78.7258 34° Northeast 105 121 6,800 480 Climbing Washington Center
10:32AM 38.4292 -78.7033 32° Northeast 105 121 7,100 120 Climbing Washington Center
10:33AM 38.4631 -78.6781 30° Northeast 122 140 7,100  Level Washington Center
10:34AM 38.3478 -78.7072 29° Northeast  Level Estimated
10:34AM 38.4950 -78.6478 37° Northeast 133 153 7,100  Level Washington Center
10:35AM 38.5292 -78.6225 30° Northeast 133 153 7,100  Level Washington Center
10:36AM 38.5633 -78.5919 35° Northeast 138 159 7,100  Level Washington Center
10:37AM 38.5950 -78.5694 29° Northeast 138 159 7,100  Level Washington Center
10:38AM 38.6272 -78.5389 37° Northeast 138 159 7,100  Level Washington Center
10:39AM 38.6611 -78.5108 33° Northeast 138 159 7,100  Level Washington Center
10:40AM 38.6931 -78.4803 37° Northeast 138 159 7,100  Level Washington Center
10:41AM 38.7272 -78.4469 37° Northeast 138 159 7,100  Level Washington Center
10:42AM 38.7592 -78.4189 34° Northeast 138 159 7,100  Level Washington Center
10:43AM 38.7911 -78.3908 34° Northeast 138 159 7,100  Level Washington Center
10:44AM 38.8253 -78.3603 35° Northeast 138 159 7,100  Level Washington Center
10:47AM 38.9167 -78.2833 33° Northeast 151 174 7,100  Level Potomac TRACON
10:48AM 38.9500 -78.2500 38° Northeast 148 170 7,100 -120 Level Potomac TRACON
10:49AM 38.9833 -78.2167 38° Northeast 153 176 6,900 -420 Descending Potomac TRACON
10:50AM 39.0167 -78.1833 38° Northeast 166 191 6,300 -600 Descending Potomac TRACON
10:51AM 39.0500 -78.1500 38° Northeast 164 189 5,700 -540 Descending Potomac TRACON
10:52AM 39.0833 -78.1333 21° North 162 186 5,300 -360 Descending Potomac TRACON
10:53AM 39.1167 -78.0833 49° Northeast 151 174 5,000 -180 Descending Potomac TRACON
10:54AM 39.1500 -78.0667 21° North 141 162 5,000  Level Potomac TRACON
10:55AM 39.1833 -78.0333 38° Northeast 140 161 5,000  Level Potomac TRACON
10:56AM 39.2167 -78.0000 38° Northeast 140 161 5,000  Level Potomac TRACON
10:57AM 39.2500 -77.9833 21° North 138 159 5,000  Level Potomac TRACON
10:57AM 39.2667 -77.9500 57° Northeast 137 158 5,000  Level Potomac TRACON
10:58AM 39.3000 -77.9167 38° Northeast 138 159 5,000  Level Potomac TRACON
10:59AM 39.3333 -77.9000 21° North 140 161 5,000  Level Potomac TRACON
11:00AM 39.3667 -77.8667 38° Northeast 136 157 5,000  Level Potomac TRACON
11:01AM 39.3833 -77.8167 67° East 140 161 5,000  Level Potomac TRACON
11:02AM 39.4000 -77.7667 67° East 138 159 5,000  Level Potomac TRACON
11:03AM 39.4000 -77.7333 90° East 139 160 5,000  Level Potomac TRACON
11:04AM 39.4000 -77.6833 90° East 137 158 5,000  Level Potomac TRACON
11:05AM 39.4167 -77.6333 67° East 140 161 5,000  Level Potomac TRACON
11:06AM 39.4167 -77.5833 90° East 144 166 5,000  Level Potomac TRACON
11:07AM 39.4167 -77.5333 90° East 138 159 5,000  Level Potomac TRACON
11:08AM 39.4333 -77.4833 67° East 141 162 5,000  Level Potomac TRACON
11:09AM 39.4333 -77.4333 90° East 143 165 5,000  Level Potomac TRACON
11:10AM 39.4500 -77.3833 67° East 138 159 5,000  Level Potomac TRACON
11:11AM 39.4500 -77.3333 90° East 136 157 5,000  Level Potomac TRACON
11:12AM 39.4667 -77.3000 57° Northeast 139 160 5,000  Level Potomac TRACON
11:13AM 39.4833 -77.2500 67° East 139 160 5,000  Level Potomac TRACON
11:14AM 39.5000 -77.2167 57° Northeast 141 162 5,000  Level Potomac TRACON
11:15AM 39.5167 -77.1667 67° East 142 163 5,000  Level Potomac TRACON
11:16AM 39.5333 -77.1167 67° East 143 165 5,000  Level Potomac TRACON
11:17AM 39.5500 -77.0667 67° East 146 168 5,000  Level Potomac TRACON
11:18AM 39.5667 -77.0167 67° East 139 160 5,000  Level Potomac TRACON
11:19AM 39.5667 -76.9667 90° East 142 163 5,000  Level Potomac TRACON
11:20AM 39.5833 -76.9167 67° East 141 162 5,000  Level Potomac TRACON
11:21AM 39.5833 -76.8667 90° East 138 159 5,000  Level Potomac TRACON
11:22AM 39.5667 -76.8333 123° Southeast 134 154 5,000  Level Potomac TRACON
11:23AM 39.5500 -76.7833 113° Southeast 134 154 5,000  Level Potomac TRACON
11:24AM 39.5333 -76.7500 123° Southeast 133 153 5,000 -300 Level Potomac TRACON
11:25AM 39.5167 -76.7000 113° Southeast 149 171 4,500 -540 Descending Potomac TRACON
11:26AM 39.5000 -76.6500 113° Southeast 155 178 4,000 -300 Descending Potomac TRACON
11:27AM 39.5000 -76.6000 90° East 139 160 4,000  Level Potomac TRACON
11:28AM 39.5000 -76.5500 90° East 134 154 4,000  Level Potomac TRACON
11:29AM 39.4833 -76.5167 123° Southeast 133 153 4,000  Level Potomac TRACON
11:30AM 39.4500 -76.5000 159° South 130 150 4,000  Level Potomac TRACON
11:31AM 39.4167 -76.4833 159° South 133 153 4,000  Level Potomac TRACON
11:32AM 39.3833 -76.4667 159° South 131 151 4,000  Level Potomac TRACON
11:33AM 39.3500 -76.4500 159° South 131 151 4,000 -540 Level Potomac TRACON
11:34AM 39.3167 -76.4333 159° South 128 147 3,000 -1,440 Descending Potomac TRACON
11:35AM 39.3000 -76.4000 123° Southeast 123 142 1,200 -1,260 Descending Potomac TRACON
11:36AM 39.3167 -76.4000 360° North 74 85 500 -540 Descending Potomac TRACON
11:37AM 39.3167 -76.4167 270° West 62 71 200 -360 Descending Potomac TRACON
11:39AM 39.3167 -76.4000 North  Level FlightAware Approximate
11:46AM 39.3257 -76.4138 North  Level Estimated
11:47AM 39.3257 -76.4138 North  Level Estimated
11:48AM 39.3257 -76.4138 North  Level Estimated